Overview Statistics Trail Chart Weather Telemetry Raw packets
 

This is the latest recevied weather packets stored in our database for station/object SR3WXD. If no packets are shown the sender has not sent any weather packets the latest 10 day(s).

<< 1 2 3 4 >>
Time Temp. Humidity Pressure Rain* Wind** Luminosity Snow
1777645543 25.56° C 20% 1000.7 hPa 0 mm - - -
1777643743 27.78° C 13% 1000.9 hPa 0 mm - - -
1777641931 27.78° C 14% 1001 hPa 0 mm - - -
1777640131 27.78° C 14% 1001 hPa 0 mm - - -
1777638331 27.22° C 20% 1001.7 hPa 0 mm - - -
1777636531 27.22° C 22% 1001.9 hPa 0 mm - - -
1777634731 25.56° C 23% 1001.9 hPa 0 mm - - -
1777632942 25° C 23% 1002.5 hPa 0 mm - - -
1777631131 23.89° C 25% 1002.5 hPa 0 mm - - -
1777629331 23.89° C 25% 1002.9 hPa 0 mm - - -
1777627523 22.78° C 26% 1003.2 hPa 0 mm - - -
1777555667 21.11° C 23% 1004.2 hPa 0 mm - - -
1777555618 21.67° C 23% 1004.2 hPa 0 mm - - -
1777553818 20° C 24% 1004.5 hPa 0 mm - - -
1777552018 18.33° C 25% 1004.9 hPa 0 mm - - -
1777551662 18.33° C 25% 1005 hPa 0 mm - - -
1777551471 17.78° C 26% 1005 hPa 0 mm - - -
1777472791 13.33° C 22% 1004.5 hPa 0 mm - - -
1777470991 14.44° C 20% 1004.2 hPa 0 mm - - -
1777469191 15.56° C 20% 1004.5 hPa 0 mm - - -
1777467391 14.44° C 20% 1004.5 hPa 0 mm - - -
1777465591 15.56° C 20% 1004.5 hPa 0 mm - - -
1777463791 14.44° C 20% 1004.5 hPa 0 mm - - -
1777409716 2.22° C 54% 999.7 hPa 0 mm - - -
1777407916 2.78° C 51% 999.7 hPa 0 mm - - -

* Rain latest hour (hover to see other rain measurements)
** Current wind speed in m/s (hover to see current wind gust speed)